Saint Paul, MN (55101)

12:18 AM CST on January 24, 2017 (GMT -0600)
Mounds Park, East Metro | | Change Station

Elev 850 ft 44.95 °N, 93.06 °W | Updated 14 seconds ago

Overcast
Overcast
33.1 °F
Feels Like 33 °F
N
0.0
Wind Variable Wind from SSW
Gusts 0.0 mph

Today
High -- | Low -- °F
--% Chance of Precip.
Yesterday
High -- | Low -- °F
Precip. -- in
Pressure 29.88 in
Visibility 6.0 miles
Clouds Overcast 1800 ft
Windchill 33 °F
Dew Point 26 °F
Humidity 76%
Rainfall 0.00 in
Snow Depth Not available.
7:39 AM 5:09 PM
Waning Crescent, 13% visible
METAR KSTP 240553Z AUTO 33004KT 6SM BR OVC018 01/M01 A2987 RMK AO2 SLP119 T00061011 10011 20006 400220006 51007
Pressure 29.88 in
Visibility 6.0 miles
Clouds Overcast 1800 ft
Windchill 33 °F
Dew Point 26 °F
Humidity 76%
Rainfall 0.00 in
Snow Depth Not available.
7:39 AM 5:09 PM
Waning Crescent, 13% visible
METAR KSTP 240553Z AUTO 33004KT 6SM BR OVC018 01/M01 A2987 RMK AO2 SLP119 T00061011 10011 20006 400220006 51007

Get Your Daily Forecast Email!

Thanks for signing up!

Be on the lookout for a verification email in your inbox.

You'll start receiving the daily forecast at 8 AM.

×

10-Day Weather Forecast

Almanac

Astronomy

Jan. 24, 2017 Rise Set
Actual Time
Civil Twilight
Nautical Twilight
Astronomical Twilight
Moon
Length of Visible Light
Length of Day
Tomorrow will be .
, % of the Moon is Illuminated

Today's Extremes

State Highs State Lows

Community

WunderPhotos

Upload Photos

1,962,540 photos uploaded!

WunderBlog® & News

Nearby

Air Quality

  Air Quality AQ Index Pollutant
Not available.

Snow Depth

Station Depth Elevation

Earthquake Activity

City Distance Mag. Time & Date
Minimum magnitude displayed is 2.5.

Coastal Water Temperatures

Place Temperature

Stations

Nearby Weather Stations

Station Location Temp. Windchill Dew Point Humidity Wind Precip. Elev Updated Type
                   

Watches & Warnings

There are currently no watches in effect.